sensor_id;sensor_type;location;lat;lon;timestamp;temperature;humidity
44190;DHT22;29856;52.144;5.430;2023-12-22T00:01:39;7.90;99.90
44190;DHT22;29856;52.144;5.430;2023-12-22T00:04:04;7.80;99.90
44190;DHT22;29856;52.144;5.430;2023-12-22T00:06:30;7.70;99.90
44190;DHT22;29856;52.144;5.430;2023-12-22T00:08:55;7.60;99.90
44190;DHT22;29856;52.144;5.430;2023-12-22T00:11:20;7.50;99.90
44190;DHT22;29856;52.144;5.430;2023-12-22T00:13:46;7.00;99.90
44190;DHT22;29856;52.144;5.430;2023-12-22T00:16:11;6.80;99.90
44190;DHT22;29856;52.144;5.430;2023-12-22T00:18:37;6.90;99.90
44190;DHT22;29856;52.144;5.430;2023-12-22T00:21:03;6.90;99.90
44190;DHT22;29856;52.144;5.430;2023-12-22T00:23:28;6.80;99.90
44190;DHT22;29856;52.144;5.430;2023-12-22T00:25:54;6.80;99.90
44190;DHT22;29856;52.144;5.430;2023-12-22T00:28:19;6.80;99.90
44190;DHT22;29856;52.144;5.430;2023-12-22T00:30:44;6.90;99.90
44190;DHT22;29856;52.144;5.430;2023-12-22T00:33:10;6.90;99.90
44190;DHT22;29856;52.144;5.430;2023-12-22T00:35:35;6.80;99.90
44190;DHT22;29856;52.144;5.430;2023-12-22T00:38:01;6.80;99.90
44190;DHT22;29856;52.144;5.430;2023-12-22T00:40:26;6.80;99.90
44190;DHT22;29856;52.144;5.430;2023-12-22T00:42:52;6.90;99.90
44190;DHT22;29856;52.144;5.430;2023-12-22T00:45:17;6.80;99.90
44190;DHT22;29856;52.144;5.430;2023-12-22T00:47:43;6.90;99.90
44190;DHT22;29856;52.144;5.430;2023-12-22T00:50:08;6.90;99.90
44190;DHT22;29856;52.144;5.430;2023-12-22T00:52:34;6.90;99.90
44190;DHT22;29856;52.144;5.430;2023-12-22T00:54:59;6.90;99.90
44190;DHT22;29856;52.144;5.430;2023-12-22T00:57:25;7.00;99.90
44190;DHT22;29856;52.144;5.430;2023-12-22T00:59:50;7.00;99.90
44190;DHT22;29856;52.144;5.430;2023-12-22T01:02:17;6.90;99.90
44190;DHT22;29856;52.144;5.430;2023-12-22T01:04:42;6.90;99.90
44190;DHT22;29856;52.144;5.430;2023-12-22T01:07:08;7.00;99.90
44190;DHT22;29856;52.144;5.430;2023-12-22T01:09:35;7.00;99.90
44190;DHT22;29856;52.144;5.430;2023-12-22T01:12:01;7.00;99.90
44190;DHT22;29856;52.144;5.430;2023-12-22T01:14:26;7.10;99.90
44190;DHT22;29856;52.144;5.430;2023-12-22T01:16:52;7.20;99.90
44190;DHT22;29856;52.144;5.430;2023-12-22T01:19:17;7.10;99.90
44190;DHT22;29856;52.144;5.430;2023-12-22T01:21:42;7.10;99.90
44190;DHT22;29856;52.144;5.430;2023-12-22T01:24:08;7.20;99.90
44190;DHT22;29856;52.144;5.430;2023-12-22T01:26:33;7.10;99.90
44190;DHT22;29856;52.144;5.430;2023-12-22T01:28:59;7.10;99.90
44190;DHT22;29856;52.144;5.430;2023-12-22T01:31:24;7.10;99.90
44190;DHT22;29856;52.144;5.430;2023-12-22T01:33:50;7.20;99.90
44190;DHT22;29856;52.144;5.430;2023-12-22T01:36:15;7.20;99.90
44190;DHT22;29856;52.144;5.430;2023-12-22T01:38:41;7.20;99.90
44190;DHT22;29856;52.144;5.430;2023-12-22T01:41:06;7.20;99.90
44190;DHT22;29856;52.144;5.430;2023-12-22T01:43:32;7.20;99.90
44190;DHT22;29856;52.144;5.430;2023-12-22T01:45:58;7.20;99.90
44190;DHT22;29856;52.144;5.430;2023-12-22T01:48:25;7.20;99.90
44190;DHT22;29856;52.144;5.430;2023-12-22T01:50:51;7.20;99.90
44190;DHT22;29856;52.144;5.430;2023-12-22T01:53:17;7.20;99.90
44190;DHT22;29856;52.144;5.430;2023-12-22T01:55:46;7.20;99.90
44190;DHT22;29856;52.144;5.430;2023-12-22T01:58:12;7.20;99.90
44190;DHT22;29856;52.144;5.430;2023-12-22T02:00:37;7.20;99.90
44190;DHT22;29856;52.144;5.430;2023-12-22T02:03:03;7.20;99.90
44190;DHT22;29856;52.144;5.430;2023-12-22T02:05:29;7.20;99.90
44190;DHT22;29856;52.144;5.430;2023-12-22T02:07:54;7.10;99.90
44190;DHT22;29856;52.144;5.430;2023-12-22T02:10:20;7.20;99.90
44190;DHT22;29856;52.144;5.430;2023-12-22T02:12:45;7.20;99.90
44190;DHT22;29856;52.144;5.430;2023-12-22T02:15:11;7.20;99.90
44190;DHT22;29856;52.144;5.430;2023-12-22T02:17:43;7.20;99.90
44190;DHT22;29856;52.144;5.430;2023-12-22T02:20:13;7.20;99.90
44190;DHT22;29856;52.144;5.430;2023-12-22T02:22:39;7.20;99.90
44190;DHT22;29856;52.144;5.430;2023-12-22T02:25:05;7.20;99.90
44190;DHT22;29856;52.144;5.430;2023-12-22T02:27:43;7.20;99.90
44190;DHT22;29856;52.144;5.430;2023-12-22T02:30:18;7.30;99.90
44190;DHT22;29856;52.144;5.430;2023-12-22T02:32:47;7.20;99.90
44190;DHT22;29856;52.144;5.430;2023-12-22T02:35:23;7.20;99.90
44190;DHT22;29856;52.144;5.430;2023-12-22T02:37:49;7.20;99.90
44190;DHT22;29856;52.144;5.430;2023-12-22T02:40:17;7.20;99.90
44190;DHT22;29856;52.144;5.430;2023-12-22T02:42:44;7.20;99.90
44190;DHT22;29856;52.144;5.430;2023-12-22T02:45:14;7.30;99.90
44190;DHT22;29856;52.144;5.430;2023-12-22T02:47:40;7.30;99.90
44190;DHT22;29856;52.144;5.430;2023-12-22T02:50:06;7.30;99.90
44190;DHT22;29856;52.144;5.430;2023-12-22T02:52:32;7.40;99.90
44190;DHT22;29856;52.144;5.430;2023-12-22T02:54:58;7.50;99.90
44190;DHT22;29856;52.144;5.430;2023-12-22T02:57:23;7.50;99.90
44190;DHT22;29856;52.144;5.430;2023-12-22T02:59:49;7.60;99.90
44190;DHT22;29856;52.144;5.430;2023-12-22T03:02:14;7.80;99.90
44190;DHT22;29856;52.144;5.430;2023-12-22T03:04:40;8.00;99.90
44190;DHT22;29856;52.144;5.430;2023-12-22T03:07:05;8.10;99.90
44190;DHT22;29856;52.144;5.430;2023-12-22T03:09:31;8.10;99.90
44190;DHT22;29856;52.144;5.430;2023-12-22T03:11:56;8.00;99.90
44190;DHT22;29856;52.144;5.430;2023-12-22T03:14:22;8.20;99.90
44190;DHT22;29856;52.144;5.430;2023-12-22T03:16:47;8.20;99.90
44190;DHT22;29856;52.144;5.430;2023-12-22T03:19:13;8.20;99.90
44190;DHT22;29856;52.144;5.430;2023-12-22T03:21:38;8.20;99.90
44190;DHT22;29856;52.144;5.430;2023-12-22T03:24:04;8.20;99.90
44190;DHT22;29856;52.144;5.430;2023-12-22T03:26:30;8.30;99.90
44190;DHT22;29856;52.144;5.430;2023-12-22T03:28:55;8.30;99.90
44190;DHT22;29856;52.144;5.430;2023-12-22T03:31:21;8.40;99.90
44190;DHT22;29856;52.144;5.430;2023-12-22T03:33:46;8.40;99.90
44190;DHT22;29856;52.144;5.430;2023-12-22T03:36:12;8.40;99.90
44190;DHT22;29856;52.144;5.430;2023-12-22T03:38:37;8.40;99.90
44190;DHT22;29856;52.144;5.430;2023-12-22T03:41:06;7.80;99.90
44190;DHT22;29856;52.144;5.430;2023-12-22T03:43:32;7.40;99.90
44190;DHT22;29856;52.144;5.430;2023-12-22T03:45:57;7.20;99.90
44190;DHT22;29856;52.144;5.430;2023-12-22T03:48:22;6.80;99.90
44190;DHT22;29856;52.144;5.430;2023-12-22T03:50:48;6.50;99.90
44190;DHT22;29856;52.144;5.430;2023-12-22T03:53:13;6.50;99.90
44190;DHT22;29856;52.144;5.430;2023-12-22T03:55:39;6.40;99.90
44190;DHT22;29856;52.144;5.430;2023-12-22T03:58:04;6.40;99.90
44190;DHT22;29856;52.144;5.430;2023-12-22T04:00:30;6.40;99.90
44190;DHT22;29856;52.144;5.430;2023-12-22T04:02:56;6.60;99.90
44190;DHT22;29856;52.144;5.430;2023-12-22T04:05:21;6.60;99.90
44190;DHT22;29856;52.144;5.430;2023-12-22T04:07:47;6.50;99.90
44190;DHT22;29856;52.144;5.430;2023-12-22T04:10:12;6.60;99.90
44190;DHT22;29856;52.144;5.430;2023-12-22T04:12:37;6.70;99.90
44190;DHT22;29856;52.144;5.430;2023-12-22T04:15:03;6.70;99.90
44190;DHT22;29856;52.144;5.430;2023-12-22T04:17:29;6.80;99.90
44190;DHT22;29856;52.144;5.430;2023-12-22T04:19:55;6.80;99.90
44190;DHT22;29856;52.144;5.430;2023-12-22T04:22:20;6.90;99.90
44190;DHT22;29856;52.144;5.430;2023-12-22T04:24:45;6.90;99.90
44190;DHT22;29856;52.144;5.430;2023-12-22T04:27:11;7.00;99.90
44190;DHT22;29856;52.144;5.430;2023-12-22T04:29:36;7.00;99.90
44190;DHT22;29856;52.144;5.430;2023-12-22T04:32:02;7.00;99.90
44190;DHT22;29856;52.144;5.430;2023-12-22T04:34:27;7.00;99.90
44190;DHT22;29856;52.144;5.430;2023-12-22T04:36:53;7.00;99.90
44190;DHT22;29856;52.144;5.430;2023-12-22T04:39:21;7.10;99.90
44190;DHT22;29856;52.144;5.430;2023-12-22T04:41:46;7.10;99.90
44190;DHT22;29856;52.144;5.430;2023-12-22T04:44:12;7.20;99.90
44190;DHT22;29856;52.144;5.430;2023-12-22T04:46:37;7.30;99.90
44190;DHT22;29856;52.144;5.430;2023-12-22T04:49:03;7.40;99.90
44190;DHT22;29856;52.144;5.430;2023-12-22T04:51:28;7.40;99.90
44190;DHT22;29856;52.144;5.430;2023-12-22T04:53:54;7.40;99.90
44190;DHT22;29856;52.144;5.430;2023-12-22T04:56:19;7.40;99.90
44190;DHT22;29856;52.144;5.430;2023-12-22T04:58:45;7.50;99.90
44190;DHT22;29856;52.144;5.430;2023-12-22T05:01:10;7.50;99.90
44190;DHT22;29856;52.144;5.430;2023-12-22T05:03:35;7.50;99.90
44190;DHT22;29856;52.144;5.430;2023-12-22T05:06:01;7.50;99.90
44190;DHT22;29856;52.144;5.430;2023-12-22T05:08:26;7.50;99.90
44190;DHT22;29856;52.144;5.430;2023-12-22T05:10:52;7.50;99.90
44190;DHT22;29856;52.144;5.430;2023-12-22T05:13:17;7.60;99.90
44190;DHT22;29856;52.144;5.430;2023-12-22T05:15:43;7.60;99.90
44190;DHT22;29856;52.144;5.430;2023-12-22T05:18:08;7.60;99.90
44190;DHT22;29856;52.144;5.430;2023-12-22T05:20:34;7.70;99.90
44190;DHT22;29856;52.144;5.430;2023-12-22T05:22:59;7.60;99.90
44190;DHT22;29856;52.144;5.430;2023-12-22T05:25:25;7.70;99.90
44190;DHT22;29856;52.144;5.430;2023-12-22T05:27:50;7.80;99.90
44190;DHT22;29856;52.144;5.430;2023-12-22T05:30:16;7.90;99.90
44190;DHT22;29856;52.144;5.430;2023-12-22T05:32:41;7.90;99.90
44190;DHT22;29856;52.144;5.430;2023-12-22T05:35:07;8.00;99.90
44190;DHT22;29856;52.144;5.430;2023-12-22T05:37:32;8.00;99.90
44190;DHT22;29856;52.144;5.430;2023-12-22T05:39:58;8.00;99.90
44190;DHT22;29856;52.144;5.430;2023-12-22T05:42:23;8.10;99.90
44190;DHT22;29856;52.144;5.430;2023-12-22T05:44:49;8.10;99.90
44190;DHT22;29856;52.144;5.430;2023-12-22T05:47:14;8.20;99.90
44190;DHT22;29856;52.144;5.430;2023-12-22T05:49:41;8.30;99.90
44190;DHT22;29856;52.144;5.430;2023-12-22T05:52:07;8.30;99.90
44190;DHT22;29856;52.144;5.430;2023-12-22T05:54:32;8.30;99.90
44190;DHT22;29856;52.144;5.430;2023-12-22T05:56:57;8.30;99.90
44190;DHT22;29856;52.144;5.430;2023-12-22T05:59:23;8.40;99.90
44190;DHT22;29856;52.144;5.430;2023-12-22T06:01:53;8.40;99.90
44190;DHT22;29856;52.144;5.430;2023-12-22T06:04:19;8.50;99.90
44190;DHT22;29856;52.144;5.430;2023-12-22T06:06:44;8.50;99.90
44190;DHT22;29856;52.144;5.430;2023-12-22T06:09:09;8.50;99.90
44190;DHT22;29856;52.144;5.430;2023-12-22T06:11:35;8.60;99.90
44190;DHT22;29856;52.144;5.430;2023-12-22T06:14:00;8.60;99.90
44190;DHT22;29856;52.144;5.430;2023-12-22T06:16:26;8.70;99.90
44190;DHT22;29856;52.144;5.430;2023-12-22T06:18:51;8.70;99.90
44190;DHT22;29856;52.144;5.430;2023-12-22T06:21:17;8.70;99.90
44190;DHT22;29856;52.144;5.430;2023-12-22T06:23:42;8.70;99.90
44190;DHT22;29856;52.144;5.430;2023-12-22T06:26:08;8.80;99.90
44190;DHT22;29856;52.144;5.430;2023-12-22T06:28:34;8.70;99.90
44190;DHT22;29856;52.144;5.430;2023-12-22T06:30:59;8.80;99.90
44190;DHT22;29856;52.144;5.430;2023-12-22T06:33:25;8.80;99.90
44190;DHT22;29856;52.144;5.430;2023-12-22T06:35:50;8.80;99.90
44190;DHT22;29856;52.144;5.430;2023-12-22T06:38:16;8.80;99.90
44190;DHT22;29856;52.144;5.430;2023-12-22T06:40:41;8.90;99.90
44190;DHT22;29856;52.144;5.430;2023-12-22T06:43:07;8.90;99.90
44190;DHT22;29856;52.144;5.430;2023-12-22T06:45:32;8.90;99.90
44190;DHT22;29856;52.144;5.430;2023-12-22T06:47:58;8.90;99.90
44190;DHT22;29856;52.144;5.430;2023-12-22T06:50:23;8.90;99.90
44190;DHT22;29856;52.144;5.430;2023-12-22T06:52:48;9.00;99.90
44190;DHT22;29856;52.144;5.430;2023-12-22T06:55:14;8.90;99.90
44190;DHT22;29856;52.144;5.430;2023-12-22T06:57:39;9.00;99.90
44190;DHT22;29856;52.144;5.430;2023-12-22T07:00:05;9.10;99.90
44190;DHT22;29856;52.144;5.430;2023-12-22T07:02:31;9.10;99.90
44190;DHT22;29856;52.144;5.430;2023-12-22T07:07:34;9.10;99.90
44190;DHT22;29856;52.144;5.430;2023-12-22T07:09:59;9.20;99.90
44190;DHT22;29856;52.144;5.430;2023-12-22T07:12:25;9.10;99.90
44190;DHT22;29856;52.144;5.430;2023-12-22T07:14:50;9.10;99.90
44190;DHT22;29856;52.144;5.430;2023-12-22T07:17:16;9.10;99.90
44190;DHT22;29856;52.144;5.430;2023-12-22T07:19:41;9.10;99.90
44190;DHT22;29856;52.144;5.430;2023-12-22T07:22:07;9.20;99.90
44190;DHT22;29856;52.144;5.430;2023-12-22T07:24:32;9.20;99.90
44190;DHT22;29856;52.144;5.430;2023-12-22T07:26:58;9.20;99.90
44190;DHT22;29856;52.144;5.430;2023-12-22T07:29:23;9.30;99.90
44190;DHT22;29856;52.144;5.430;2023-12-22T07:31:49;9.30;99.90
44190;DHT22;29856;52.144;5.430;2023-12-22T07:34:14;9.30;99.90
44190;DHT22;29856;52.144;5.430;2023-12-22T07:36:40;9.30;99.90
44190;DHT22;29856;52.144;5.430;2023-12-22T07:39:05;9.30;99.90
44190;DHT22;29856;52.144;5.430;2023-12-22T07:41:30;9.30;99.90
44190;DHT22;29856;52.144;5.430;2023-12-22T07:43:56;9.30;99.90
44190;DHT22;29856;52.144;5.430;2023-12-22T07:46:21;9.30;99.90
44190;DHT22;29856;52.144;5.430;2023-12-22T07:48:47;9.30;99.90
44190;DHT22;29856;52.144;5.430;2023-12-22T07:51:13;9.30;99.90
44190;DHT22;29856;52.144;5.430;2023-12-22T07:53:38;9.30;99.90
44190;DHT22;29856;52.144;5.430;2023-12-22T07:56:04;9.10;99.90
44190;DHT22;29856;52.144;5.430;2023-12-22T07:58:29;9.00;99.90
44190;DHT22;29856;52.144;5.430;2023-12-22T08:00:55;8.90;99.90
44190;DHT22;29856;52.144;5.430;2023-12-22T08:03:20;8.80;99.90
44190;DHT22;29856;52.144;5.430;2023-12-22T08:05:45;8.90;99.90
44190;DHT22;29856;52.144;5.430;2023-12-22T08:08:11;8.80;99.90
44190;DHT22;29856;52.144;5.430;2023-12-22T08:10:36;8.80;99.90
44190;DHT22;29856;52.144;5.430;2023-12-22T08:13:02;8.80;99.90
44190;DHT22;29856;52.144;5.430;2023-12-22T08:15:27;8.80;99.90
44190;DHT22;29856;52.144;5.430;2023-12-22T08:17:53;8.80;99.90
44190;DHT22;29856;52.144;5.430;2023-12-22T08:20:19;8.90;99.90
44190;DHT22;29856;52.144;5.430;2023-12-22T08:22:48;8.90;99.90
44190;DHT22;29856;52.144;5.430;2023-12-22T08:25:14;8.90;99.90
44190;DHT22;29856;52.144;5.430;2023-12-22T08:27:40;8.90;99.90
44190;DHT22;29856;52.144;5.430;2023-12-22T08:30:06;9.00;99.90
44190;DHT22;29856;52.144;5.430;2023-12-22T08:32:32;9.00;99.90
44190;DHT22;29856;52.144;5.430;2023-12-22T08:34:57;9.00;99.90
44190;DHT22;29856;52.144;5.430;2023-12-22T08:37:22;9.00;99.90
44190;DHT22;29856;52.144;5.430;2023-12-22T08:39:48;9.00;99.90
44190;DHT22;29856;52.144;5.430;2023-12-22T08:42:13;9.00;99.90
44190;DHT22;29856;52.144;5.430;2023-12-22T08:44:39;9.00;99.90
44190;DHT22;29856;52.144;5.430;2023-12-22T08:47:04;9.10;99.90
44190;DHT22;29856;52.144;5.430;2023-12-22T08:49:30;9.00;99.90
44190;DHT22;29856;52.144;5.430;2023-12-22T08:51:55;9.00;99.90
44190;DHT22;29856;52.144;5.430;2023-12-22T08:54:21;9.10;99.90
44190;DHT22;29856;52.144;5.430;2023-12-22T08:56:46;9.00;99.90
44190;DHT22;29856;52.144;5.430;2023-12-22T08:59:12;9.10;99.90
44190;DHT22;29856;52.144;5.430;2023-12-22T09:01:37;9.10;99.90
44190;DHT22;29856;52.144;5.430;2023-12-22T09:04:02;9.20;99.90
44190;DHT22;29856;52.144;5.430;2023-12-22T09:06:28;9.20;99.90
44190;DHT22;29856;52.144;5.430;2023-12-22T09:08:53;9.20;99.90
44190;DHT22;29856;52.144;5.430;2023-12-22T09:11:20;9.30;99.90
44190;DHT22;29856;52.144;5.430;2023-12-22T09:13:45;9.30;99.90
44190;DHT22;29856;52.144;5.430;2023-12-22T09:16:11;9.40;99.90
44190;DHT22;29856;52.144;5.430;2023-12-22T09:18:37;9.40;99.90
44190;DHT22;29856;52.144;5.430;2023-12-22T09:21:02;9.50;99.90
44190;DHT22;29856;52.144;5.430;2023-12-22T09:23:29;9.50;99.90
44190;DHT22;29856;52.144;5.430;2023-12-22T09:25:54;9.50;99.90
44190;DHT22;29856;52.144;5.430;2023-12-22T09:28:20;9.50;99.90
44190;DHT22;29856;52.144;5.430;2023-12-22T09:30:45;9.40;99.90
44190;DHT22;29856;52.144;5.430;2023-12-22T09:33:11;9.30;99.90
44190;DHT22;29856;52.144;5.430;2023-12-22T09:35:36;9.20;99.90
44190;DHT22;29856;52.144;5.430;2023-12-22T09:38:03;9.00;99.90
44190;DHT22;29856;52.144;5.430;2023-12-22T09:40:28;9.00;99.90
44190;DHT22;29856;52.144;5.430;2023-12-22T09:42:58;8.90;99.90
44190;DHT22;29856;52.144;5.430;2023-12-22T09:45:24;9.00;99.90
44190;DHT22;29856;52.144;5.430;2023-12-22T09:47:50;9.00;99.90
44190;DHT22;29856;52.144;5.430;2023-12-22T09:50:16;9.00;99.90
44190;DHT22;29856;52.144;5.430;2023-12-22T09:52:45;9.00;99.90
44190;DHT22;29856;52.144;5.430;2023-12-22T09:55:12;9.00;99.90
44190;DHT22;29856;52.144;5.430;2023-12-22T09:57:38;9.00;99.90
44190;DHT22;29856;52.144;5.430;2023-12-22T10:00:07;9.00;99.90
44190;DHT22;29856;52.144;5.430;2023-12-22T10:02:34;9.10;99.90
44190;DHT22;29856;52.144;5.430;2023-12-22T10:05:01;9.10;99.90
44190;DHT22;29856;52.144;5.430;2023-12-22T10:07:27;9.20;99.90
44190;DHT22;29856;52.144;5.430;2023-12-22T10:09:54;9.30;99.90
44190;DHT22;29856;52.144;5.430;2023-12-22T10:12:19;9.30;99.90
44190;DHT22;29856;52.144;5.430;2023-12-22T10:14:47;9.40;99.90
44190;DHT22;29856;52.144;5.430;2023-12-22T10:17:14;9.50;99.90
44190;DHT22;29856;52.144;5.430;2023-12-22T10:19:40;9.60;99.90
44190;DHT22;29856;52.144;5.430;2023-12-22T10:22:05;9.70;99.90
44190;DHT22;29856;52.144;5.430;2023-12-22T10:24:44;9.70;99.90
44190;DHT22;29856;52.144;5.430;2023-12-22T10:27:11;9.80;99.90
44190;DHT22;29856;52.144;5.430;2023-12-22T10:29:37;9.70;99.90
44190;DHT22;29856;52.144;5.430;2023-12-22T10:32:03;9.80;99.90
44190;DHT22;29856;52.144;5.430;2023-12-22T10:34:32;9.80;99.90
44190;DHT22;29856;52.144;5.430;2023-12-22T10:37:01;9.80;99.90
44190;DHT22;29856;52.144;5.430;2023-12-22T10:39:30;9.80;99.90
44190;DHT22;29856;52.144;5.430;2023-12-22T10:42:00;9.80;99.90
44190;DHT22;29856;52.144;5.430;2023-12-22T10:44:26;9.80;99.90
44190;DHT22;29856;52.144;5.430;2023-12-22T10:46:52;9.90;99.90
44190;DHT22;29856;52.144;5.430;2023-12-22T10:49:18;9.90;99.90
44190;DHT22;29856;52.144;5.430;2023-12-22T10:51:44;9.90;99.90
44190;DHT22;29856;52.144;5.430;2023-12-22T10:54:09;9.90;99.90
44190;DHT22;29856;52.144;5.430;2023-12-22T10:56:35;10.00;99.90
44190;DHT22;29856;52.144;5.430;2023-12-22T10:59:01;10.10;99.90
44190;DHT22;29856;52.144;5.430;2023-12-22T11:01:30;10.10;99.90
44190;DHT22;29856;52.144;5.430;2023-12-22T11:03:59;10.10;99.90
44190;DHT22;29856;52.144;5.430;2023-12-22T11:06:27;10.20;99.90
44190;DHT22;29856;52.144;5.430;2023-12-22T11:08:56;10.20;99.90
44190;DHT22;29856;52.144;5.430;2023-12-22T11:11:33;10.20;99.90
44190;DHT22;29856;52.144;5.430;2023-12-22T11:14:02;10.20;99.90
44190;DHT22;29856;52.144;5.430;2023-12-22T11:16:29;10.20;99.90
44190;DHT22;29856;52.144;5.430;2023-12-22T11:18:55;10.30;99.90
44190;DHT22;29856;52.144;5.430;2023-12-22T11:21:24;10.30;99.90
44190;DHT22;29856;52.144;5.430;2023-12-22T11:23:52;10.40;99.90
44190;DHT22;29856;52.144;5.430;2023-12-22T11:26:19;10.40;99.90
44190;DHT22;29856;52.144;5.430;2023-12-22T11:28:49;10.40;99.90
44190;DHT22;29856;52.144;5.430;2023-12-22T11:31:15;10.40;99.90
44190;DHT22;29856;52.144;5.430;2023-12-22T11:33:44;10.40;99.90
44190;DHT22;29856;52.144;5.430;2023-12-22T11:36:11;10.40;99.90
44190;DHT22;29856;52.144;5.430;2023-12-22T11:38:37;10.40;99.90
44190;DHT22;29856;52.144;5.430;2023-12-22T11:41:04;10.40;99.90
44190;DHT22;29856;52.144;5.430;2023-12-22T11:43:31;10.40;99.90
44190;DHT22;29856;52.144;5.430;2023-12-22T11:46:02;10.40;99.90
44190;DHT22;29856;52.144;5.430;2023-12-22T11:48:32;10.50;99.90
44190;DHT22;29856;52.144;5.430;2023-12-22T11:50:57;10.40;99.90
44190;DHT22;29856;52.144;5.430;2023-12-22T11:53:25;10.50;99.90
44190;DHT22;29856;52.144;5.430;2023-12-22T11:56:04;10.50;99.90
44190;DHT22;29856;52.144;5.430;2023-12-22T11:58:48;10.50;99.90
44190;DHT22;29856;52.144;5.430;2023-12-22T12:01:14;10.60;99.90
44190;DHT22;29856;52.144;5.430;2023-12-22T12:03:49;10.60;99.90
44190;DHT22;29856;52.144;5.430;2023-12-22T12:06:17;10.60;99.90
44190;DHT22;29856;52.144;5.430;2023-12-22T12:08:47;10.60;99.90
44190;DHT22;29856;52.144;5.430;2023-12-22T12:11:12;10.70;99.90
44190;DHT22;29856;52.144;5.430;2023-12-22T12:13:42;10.70;99.90
44190;DHT22;29856;52.144;5.430;2023-12-22T12:16:08;10.70;99.90
44190;DHT22;29856;52.144;5.430;2023-12-22T12:18:34;10.70;99.90
44190;DHT22;29856;52.144;5.430;2023-12-22T12:21:00;10.70;99.90
44190;DHT22;29856;52.144;5.430;2023-12-22T12:23:26;10.70;99.90
44190;DHT22;29856;52.144;5.430;2023-12-22T12:25:55;10.70;99.90
44190;DHT22;29856;52.144;5.430;2023-12-22T12:28:29;10.70;99.90
44190;DHT22;29856;52.144;5.430;2023-12-22T12:31:04;10.70;99.90
44190;DHT22;29856;52.144;5.430;2023-12-22T12:33:30;10.80;99.90
44190;DHT22;29856;52.144;5.430;2023-12-22T12:35:58;10.80;99.90
44190;DHT22;29856;52.144;5.430;2023-12-22T12:38:53;10.80;99.90
44190;DHT22;29856;52.144;5.430;2023-12-22T12:41:25;10.80;99.90
44190;DHT22;29856;52.144;5.430;2023-12-22T12:43:55;10.80;99.90
44190;DHT22;29856;52.144;5.430;2023-12-22T12:46:21;10.80;99.90
44190;DHT22;29856;52.144;5.430;2023-12-22T12:48:47;10.80;99.90
44190;DHT22;29856;52.144;5.430;2023-12-22T12:51:12;10.80;99.90
44190;DHT22;29856;52.144;5.430;2023-12-22T12:53:38;10.80;99.90
44190;DHT22;29856;52.144;5.430;2023-12-22T12:56:04;10.80;99.90
44190;DHT22;29856;52.144;5.430;2023-12-22T12:58:30;10.80;99.90
44190;DHT22;29856;52.144;5.430;2023-12-22T13:01:09;10.80;99.90
44190;DHT22;29856;52.144;5.430;2023-12-22T13:03:51;10.90;99.90
44190;DHT22;29856;52.144;5.430;2023-12-22T13:06:17;10.90;99.90
44190;DHT22;29856;52.144;5.430;2023-12-22T13:08:51;10.90;99.90
44190;DHT22;29856;52.144;5.430;2023-12-22T13:11:28;10.90;99.90
44190;DHT22;29856;52.144;5.430;2023-12-22T13:14:03;10.90;99.90
44190;DHT22;29856;52.144;5.430;2023-12-22T13:16:29;10.90;99.90
44190;DHT22;29856;52.144;5.430;2023-12-22T13:18:54;10.80;99.90
44190;DHT22;29856;52.144;5.430;2023-12-22T13:21:20;10.90;99.90
44190;DHT22;29856;52.144;5.430;2023-12-22T13:23:46;10.90;99.90
44190;DHT22;29856;52.144;5.430;2023-12-22T13:26:18;10.90;99.90
44190;DHT22;29856;52.144;5.430;2023-12-22T13:28:44;10.90;99.90
44190;DHT22;29856;52.144;5.430;2023-12-22T13:31:13;10.90;99.90
44190;DHT22;29856;52.144;5.430;2023-12-22T13:33:40;10.90;99.90
44190;DHT22;29856;52.144;5.430;2023-12-22T13:36:05;10.90;99.90
44190;DHT22;29856;52.144;5.430;2023-12-22T13:38:31;10.90;99.90
44190;DHT22;29856;52.144;5.430;2023-12-22T13:40:57;11.00;99.90
44190;DHT22;29856;52.144;5.430;2023-12-22T13:43:23;11.00;99.90
44190;DHT22;29856;52.144;5.430;2023-12-22T13:45:52;10.90;99.90
44190;DHT22;29856;52.144;5.430;2023-12-22T13:48:18;10.90;99.90
44190;DHT22;29856;52.144;5.430;2023-12-22T13:50:57;11.00;99.90
44190;DHT22;29856;52.144;5.430;2023-12-22T13:53:23;11.00;99.90
44190;DHT22;29856;52.144;5.430;2023-12-22T13:55:59;11.00;99.90
44190;DHT22;29856;52.144;5.430;2023-12-22T13:58:25;11.00;99.90
44190;DHT22;29856;52.144;5.430;2023-12-22T14:00:51;10.90;99.90
44190;DHT22;29856;52.144;5.430;2023-12-22T14:03:17;10.90;99.90
44190;DHT22;29856;52.144;5.430;2023-12-22T14:05:43;10.80;99.90
44190;DHT22;29856;52.144;5.430;2023-12-22T14:08:08;10.70;99.90
44190;DHT22;29856;52.144;5.430;2023-12-22T14:10:34;10.60;99.90
44190;DHT22;29856;52.144;5.430;2023-12-22T14:13:00;10.60;99.90
44190;DHT22;29856;52.144;5.430;2023-12-22T14:15:25;10.50;99.90
44190;DHT22;29856;52.144;5.430;2023-12-22T14:17:51;10.50;99.90
44190;DHT22;29856;52.144;5.430;2023-12-22T14:20:16;10.60;99.90
44190;DHT22;29856;52.144;5.430;2023-12-22T14:22:42;10.60;99.90
44190;DHT22;29856;52.144;5.430;2023-12-22T14:25:08;10.60;99.90
44190;DHT22;29856;52.144;5.430;2023-12-22T14:27:33;10.70;99.90
44190;DHT22;29856;52.144;5.430;2023-12-22T14:29:59;10.70;99.90
44190;DHT22;29856;52.144;5.430;2023-12-22T14:32:24;10.70;99.90
44190;DHT22;29856;52.144;5.430;2023-12-22T14:34:50;10.70;99.90
44190;DHT22;29856;52.144;5.430;2023-12-22T14:37:15;10.70;99.90
44190;DHT22;29856;52.144;5.430;2023-12-22T14:39:40;10.70;99.90
44190;DHT22;29856;52.144;5.430;2023-12-22T14:42:06;10.70;99.90
44190;DHT22;29856;52.144;5.430;2023-12-22T14:44:31;10.70;99.90
44190;DHT22;29856;52.144;5.430;2023-12-22T14:46:57;10.70;99.90
44190;DHT22;29856;52.144;5.430;2023-12-22T14:49:22;10.70;99.90
44190;DHT22;29856;52.144;5.430;2023-12-22T14:51:48;10.70;99.90
44190;DHT22;29856;52.144;5.430;2023-12-22T14:54:13;10.70;99.90
44190;DHT22;29856;52.144;5.430;2023-12-22T14:56:39;10.70;99.90
44190;DHT22;29856;52.144;5.430;2023-12-22T14:59:04;10.70;99.90
44190;DHT22;29856;52.144;5.430;2023-12-22T15:01:30;10.60;99.90
44190;DHT22;29856;52.144;5.430;2023-12-22T15:03:55;10.60;99.90
44190;DHT22;29856;52.144;5.430;2023-12-22T15:06:20;10.50;99.90
44190;DHT22;29856;52.144;5.430;2023-12-22T15:08:46;10.50;99.90
44190;DHT22;29856;52.144;5.430;2023-12-22T15:11:11;10.60;99.90
44190;DHT22;29856;52.144;5.430;2023-12-22T15:13:38;10.60;99.90
44190;DHT22;29856;52.144;5.430;2023-12-22T15:16:05;10.50;99.90
44190;DHT22;29856;52.144;5.430;2023-12-22T15:18:30;10.50;99.90
44190;DHT22;29856;52.144;5.430;2023-12-22T15:20:56;10.50;99.90
44190;DHT22;29856;52.144;5.430;2023-12-22T15:23:21;10.50;99.90
44190;DHT22;29856;52.144;5.430;2023-12-22T15:25:46;10.50;99.90
44190;DHT22;29856;52.144;5.430;2023-12-22T15:28:12;10.50;99.90
44190;DHT22;29856;52.144;5.430;2023-12-22T15:30:37;10.60;99.90
44190;DHT22;29856;52.144;5.430;2023-12-22T15:33:03;10.50;99.90
44190;DHT22;29856;52.144;5.430;2023-12-22T15:35:29;10.60;99.90
44190;DHT22;29856;52.144;5.430;2023-12-22T15:37:54;10.60;99.90
44190;DHT22;29856;52.144;5.430;2023-12-22T15:40:20;10.60;99.90